createdAt,value
2023-04-21T00:01:53.256Z,17.30
2023-04-21T00:04:21.029Z,16.05
2023-04-21T00:06:48.755Z,17.50
2023-04-21T00:09:17.166Z,17.17
2023-04-21T00:11:45.040Z,15.60
2023-04-21T00:14:14.169Z,17.50
2023-04-21T00:16:41.909Z,16.67
2023-04-21T00:19:09.580Z,17.45
2023-04-21T00:21:37.306Z,16.60
2023-04-21T00:24:05.519Z,17.45
2023-04-21T00:26:33.268Z,17.45
2023-04-21T00:29:01.053Z,16.77
2023-04-21T00:31:30.234Z,17.45
2023-04-21T00:33:57.992Z,17.70
2023-04-21T00:36:28.163Z,18.05
2023-04-21T00:38:55.828Z,17.65
2023-04-21T00:41:23.634Z,17.47
2023-04-21T00:44:04.946Z,17.60
2023-04-21T00:46:34.397Z,18.38
2023-04-21T00:49:05.199Z,17.13
2023-04-21T00:51:34.620Z,18.58
2023-04-21T00:54:04.297Z,18.90
2023-04-21T00:56:33.175Z,17.88
2023-04-21T00:59:01.560Z,17.92
2023-04-21T01:01:30.054Z,18.60
2023-04-21T01:04:00.926Z,18.92
2023-04-21T01:06:29.740Z,17.43
2023-04-21T01:08:57.664Z,17.40
2023-04-21T01:11:26.364Z,18.77
2023-04-21T01:13:54.799Z,16.90
2023-04-21T01:16:23.237Z,18.23
2023-04-21T01:18:52.092Z,17.45
2023-04-21T01:21:21.996Z,18.08
2023-04-21T01:23:51.204Z,17.83
2023-04-21T01:26:19.611Z,19.02
2023-04-21T01:28:47.668Z,18.75
2023-04-21T01:31:15.688Z,21.60
2023-04-21T01:33:43.472Z,18.60
2023-04-21T01:36:11.459Z,17.67
2023-04-21T01:38:40.795Z,19.92
2023-04-21T01:41:10.839Z,19.37
2023-04-21T01:43:39.452Z,19.87
2023-04-21T01:46:08.085Z,18.92
2023-04-21T01:48:37.852Z,18.20
2023-04-21T01:51:05.676Z,18.67
2023-04-21T01:53:33.461Z,18.88
2023-04-21T01:56:01.125Z,18.50
2023-04-21T01:58:30.328Z,18.27
2023-04-21T02:00:58.076Z,19.13
2023-04-21T02:03:26.132Z,18.52
2023-04-21T02:05:53.937Z,18.55
2023-04-21T02:08:21.644Z,17.87
2023-04-21T02:10:49.395Z,19.10
2023-04-21T02:13:17.088Z,18.90
2023-04-21T02:15:46.332Z,18.65
2023-04-21T02:18:14.978Z,18.85
2023-04-21T02:20:42.882Z,19.30
2023-04-21T02:23:10.787Z,18.45
2023-04-21T02:25:38.504Z,21.53
2023-04-21T02:28:06.231Z,20.38
2023-04-21T02:30:35.071Z,18.83
2023-04-21T02:33:04.195Z,19.83
2023-04-21T02:35:33.767Z,19.52
2023-04-21T02:38:07.216Z,18.85
2023-04-21T02:40:34.881Z,19.73
2023-04-21T02:43:02.989Z,19.17
2023-04-21T02:45:30.684Z,19.65
2023-04-21T02:47:59.254Z,19.88
2023-04-21T02:50:28.507Z,18.88
2023-04-21T02:52:56.257Z,19.83
2023-04-21T02:55:24.910Z,20.30
2023-04-21T02:57:52.646Z,17.92
2023-04-21T03:00:20.638Z,19.23
2023-04-21T03:02:48.423Z,18.55
2023-04-21T03:05:16.234Z,19.55
2023-04-21T03:07:45.827Z,19.25
2023-04-21T03:10:13.556Z,19.88
2023-04-21T03:12:41.239Z,18.60
2023-04-21T03:15:09.220Z,19.17
2023-04-21T03:17:36.915Z,19.70
2023-04-21T03:20:07.865Z,19.92
2023-04-21T03:22:35.632Z,20.35
2023-04-21T03:25:07.421Z,20.05
2023-04-21T03:27:35.684Z,21.10
2023-04-21T03:30:03.964Z,20.35
2023-04-21T03:32:31.678Z,20.33
2023-04-21T03:34:59.413Z,19.73
2023-04-21T03:37:27.198Z,19.70
2023-04-21T03:39:54.872Z,19.60
2023-04-21T03:42:24.051Z,20.23
2023-04-21T03:44:51.770Z,19.63
2023-04-21T03:47:19.532Z,18.85
2023-04-21T03:49:47.335Z,19.75
2023-04-21T03:52:15.022Z,20.67
2023-04-21T03:54:42.716Z,20.85
2023-04-21T03:57:10.480Z,20.77
2023-04-21T03:59:39.573Z,19.98
2023-04-21T04:02:07.450Z,20.88
2023-04-21T04:04:35.556Z,19.08
2023-04-21T04:07:03.327Z,19.25
2023-04-21T04:09:30.973Z,20.05
2023-04-21T04:11:58.726Z,20.42
2023-04-21T04:14:26.537Z,21.83
2023-04-21T04:16:55.655Z,20.40
2023-04-21T04:19:23.368Z,20.33
2023-04-21T04:21:51.005Z,20.63
2023-04-21T04:24:19.475Z,21.38
2023-04-21T04:26:47.975Z,20.35
2023-04-21T04:29:16.245Z,19.95
2023-04-21T04:31:43.960Z,21.20
2023-04-21T04:34:13.380Z,19.63
2023-04-21T04:36:42.303Z,20.52
2023-04-21T04:39:10.301Z,22.02
2023-04-21T04:41:38.105Z,20.85
2023-04-21T04:44:06.217Z,21.35
2023-04-21T04:46:34.041Z,21.25
2023-04-21T04:49:01.887Z,21.48
2023-04-21T04:51:32.677Z,21.38
2023-04-21T04:54:00.486Z,19.90
2023-04-21T04:56:28.281Z,20.77
2023-04-21T04:58:56.001Z,21.23
2023-04-21T05:01:29.292Z,22.67
2023-04-21T05:03:57.440Z,22.55
2023-04-21T05:06:25.271Z,21.80
2023-04-21T05:08:54.371Z,22.40
2023-04-21T05:11:22.070Z,22.30
2023-04-21T05:13:49.828Z,21.48
2023-04-21T05:16:17.615Z,22.65
2023-04-21T05:18:45.331Z,21.97
2023-04-21T05:21:13.013Z,22.00
2023-04-21T05:23:40.975Z,21.48
2023-04-21T05:26:10.075Z,21.77
2023-04-21T05:28:38.127Z,22.07
2023-04-21T05:31:07.119Z,21.77
2023-04-21T05:33:34.836Z,21.50
2023-04-21T05:36:02.585Z,20.35
2023-04-21T05:38:30.347Z,22.27
2023-04-21T05:40:58.035Z,20.90
2023-04-21T05:43:27.224Z,20.10
2023-04-21T05:45:55.097Z,20.92
2023-04-21T05:48:23.454Z,21.50
2023-04-21T05:50:51.180Z,20.90
2023-04-21T05:53:18.958Z,20.65
2023-04-21T05:55:46.632Z,22.75
2023-04-21T05:58:14.303Z,22.77
2023-04-21T06:00:43.454Z,20.73
2023-04-21T06:03:11.266Z,21.98
2023-04-21T06:05:39.083Z,22.88
2023-04-21T06:08:07.045Z,21.90
2023-04-21T06:10:34.741Z,21.73
2023-04-21T06:13:02.419Z,22.05
2023-04-21T06:15:30.182Z,23.15
2023-04-21T06:17:59.395Z,20.88
2023-04-21T06:20:27.165Z,22.85
2023-04-21T06:22:54.950Z,21.60
2023-04-21T06:25:23.019Z,21.20
2023-04-21T06:27:50.948Z,21.65
2023-04-21T06:30:18.806Z,22.00
2023-04-21T06:32:47.703Z,21.63
2023-04-21T06:35:17.305Z,22.00
2023-04-21T06:37:45.051Z,21.60
2023-04-21T06:40:15.946Z,23.70
2023-04-21T06:42:43.857Z,20.40
2023-04-21T06:45:12.427Z,19.33
2023-04-21T06:47:40.155Z,20.98
2023-04-21T06:50:08.921Z,19.98
2023-04-21T06:52:38.003Z,20.48
2023-04-21T06:55:06.891Z,20.40
2023-04-21T06:57:34.779Z,20.08
2023-04-21T07:00:02.612Z,19.75
2023-04-21T07:02:30.398Z,21.10
2023-04-21T07:04:58.139Z,20.02
2023-04-21T07:07:25.928Z,19.55
2023-04-21T07:09:55.100Z,19.10
2023-04-21T07:12:22.983Z,19.55
2023-04-21T07:14:50.838Z,19.85
2023-04-21T07:17:18.544Z,18.77
2023-04-21T07:19:46.344Z,19.98
2023-04-21T07:22:14.031Z,20.27
2023-04-21T07:24:41.760Z,19.88
2023-04-21T07:27:10.803Z,19.20
2023-04-21T07:29:38.512Z,18.33
2023-04-21T07:32:06.352Z,20.00
2023-04-21T07:34:34.083Z,20.13
2023-04-21T07:37:01.803Z,21.43
2023-04-21T07:39:29.466Z,17.95
2023-04-21T07:41:57.122Z,19.50
2023-04-21T07:44:26.259Z,19.48
2023-04-21T07:46:53.932Z,19.75
2023-04-21T07:49:21.765Z,18.95
2023-04-21T07:51:50.067Z,19.40
2023-04-21T07:54:17.753Z,20.03
2023-04-21T07:56:45.455Z,19.85
2023-04-21T07:59:13.095Z,19.00
2023-04-21T08:01:42.127Z,19.23
2023-04-21T08:04:10.560Z,20.20
2023-04-21T08:06:38.759Z,19.00
2023-04-21T08:09:06.535Z,19.15
2023-04-21T08:11:34.540Z,18.98
2023-04-21T08:14:03.538Z,19.02
2023-04-21T08:16:31.622Z,19.20
2023-04-21T08:19:01.229Z,19.98
2023-04-21T08:21:31.188Z,19.80
2023-04-21T08:23:59.075Z,20.55
2023-04-21T08:26:27.077Z,19.33
2023-04-21T08:28:55.162Z,22.67
2023-04-21T08:31:23.235Z,19.50
2023-04-21T08:34:01.167Z,20.43
2023-04-21T08:36:32.021Z,19.77
2023-04-21T08:39:00.047Z,19.60
2023-04-21T08:41:27.896Z,20.20
2023-04-21T08:43:55.707Z,20.30
2023-04-21T08:46:25.455Z,19.55
2023-04-21T08:48:55.064Z,20.95
2023-04-21T08:51:24.922Z,20.92
2023-04-21T08:53:55.802Z,20.25
2023-04-21T08:56:25.660Z,21.27
2023-04-21T08:58:53.521Z,21.13
2023-04-21T09:01:21.826Z,20.70
2023-04-21T09:03:49.790Z,20.10
2023-04-21T09:06:17.982Z,21.75
2023-04-21T09:08:56.657Z,20.02
2023-04-21T09:11:24.637Z,20.25
2023-04-21T09:13:52.939Z,20.45
2023-04-21T09:16:22.813Z,21.07
2023-04-21T09:18:51.605Z,20.02
2023-04-21T09:21:20.330Z,21.15
2023-04-21T09:23:49.200Z,20.60
2023-04-21T09:26:19.385Z,21.33
2023-04-21T09:28:49.010Z,20.98
2023-04-21T09:31:19.587Z,21.37
2023-04-21T09:33:57.859Z,20.08
2023-04-21T09:36:28.441Z,19.48
2023-04-21T09:41:33.910Z,21.67
2023-04-21T09:44:04.036Z,20.92
2023-04-21T09:46:34.521Z,22.27
2023-04-21T09:49:03.176Z,20.65
2023-04-21T09:51:42.715Z,20.90
2023-04-21T09:56:57.619Z,19.30
2023-04-21T09:59:27.726Z,20.33
2023-04-21T10:01:57.122Z,20.17
2023-04-21T10:04:26.631Z,20.02
2023-04-21T10:06:54.810Z,19.58
2023-04-21T10:09:23.950Z,22.08
2023-04-21T10:11:53.335Z,19.42
2023-04-21T10:14:21.420Z,23.40
2023-04-21T10:16:57.584Z,19.98
2023-04-21T10:19:26.919Z,19.33
2023-04-21T10:21:56.876Z,19.58
2023-04-21T10:24:24.732Z,18.83
2023-04-21T10:26:55.354Z,19.60
2023-04-21T10:29:40.201Z,18.75
2023-04-21T10:32:11.938Z,20.25
2023-04-21T10:34:40.614Z,22.63
2023-04-21T10:37:19.788Z,20.53
2023-04-21T10:39:53.688Z,19.97
2023-04-21T10:42:28.321Z,19.95
2023-04-21T10:45:04.156Z,21.30
2023-04-21T10:47:37.871Z,20.67
2023-04-21T10:50:17.105Z,20.02
2023-04-21T10:52:46.168Z,21.33
2023-04-21T10:55:15.755Z,20.73
2023-04-21T10:57:46.248Z,20.85
2023-04-21T11:00:17.788Z,20.67
2023-04-21T11:02:45.858Z,22.45
2023-04-21T11:05:13.733Z,20.48
2023-04-21T11:07:41.664Z,20.30
2023-04-21T11:10:11.215Z,21.67
2023-04-21T11:12:40.130Z,19.88
2023-04-21T11:15:11.043Z,20.65
2023-04-21T11:17:39.843Z,20.42
2023-04-21T11:20:09.066Z,22.08
2023-04-21T11:22:38.149Z,21.10
2023-04-21T11:25:06.761Z,22.25
2023-04-21T11:27:34.520Z,20.55
2023-04-21T11:30:04.844Z,21.75
2023-04-21T11:32:35.072Z,21.67
2023-04-21T11:35:04.647Z,20.90
2023-04-21T11:37:32.754Z,20.30
2023-04-21T11:40:01.311Z,21.80
2023-04-21T11:42:29.393Z,21.75
2023-04-21T11:44:57.649Z,19.55
2023-04-21T11:47:26.575Z,20.70
2023-04-21T11:49:57.129Z,22.83
2023-04-21T11:52:26.350Z,21.02
2023-04-21T11:54:57.540Z,21.02
2023-04-21T11:57:26.435Z,20.73
2023-04-21T11:59:54.328Z,20.35
2023-04-21T12:02:23.775Z,21.77
2023-04-21T12:05:06.976Z,20.90
2023-04-21T12:07:36.690Z,20.02
2023-04-21T12:10:10.511Z,19.73
2023-04-21T12:12:38.997Z,19.63
2023-04-21T12:15:07.785Z,20.50
2023-04-21T12:17:39.514Z,20.38
2023-04-21T12:20:10.314Z,20.23
2023-04-21T12:22:38.247Z,19.88
2023-04-21T12:25:06.961Z,19.08
2023-04-21T12:27:34.694Z,18.85
2023-04-21T12:30:03.291Z,18.48
2023-04-21T12:32:31.247Z,18.67
2023-04-21T12:35:00.539Z,20.00
2023-04-21T12:37:29.712Z,17.85
2023-04-21T12:39:57.500Z,17.20
2023-04-21T12:42:25.648Z,17.37
2023-04-21T12:44:53.671Z,17.23
2023-04-21T12:47:21.513Z,18.02
2023-04-21T12:49:49.267Z,17.80
2023-04-21T12:52:16.966Z,17.60
2023-04-21T12:54:46.144Z,18.00
2023-04-21T12:57:13.854Z,18.17
2023-04-21T12:59:41.986Z,16.27
2023-04-21T13:02:10.597Z,16.73
2023-04-21T13:04:39.286Z,17.08
2023-04-21T13:07:07.131Z,16.80
2023-04-21T13:09:34.952Z,16.52
2023-04-21T13:12:04.010Z,16.63
2023-04-21T13:14:31.692Z,17.33
2023-04-21T13:16:59.453Z,17.50
2023-04-21T13:19:28.663Z,16.42
2023-04-21T13:21:56.608Z,16.17
2023-04-21T13:24:25.901Z,16.20
2023-04-21T13:26:53.628Z,16.67
2023-04-21T13:29:22.798Z,15.73
2023-04-21T13:31:50.610Z,15.77
2023-04-21T13:34:18.424Z,14.93
2023-04-21T13:36:46.107Z,15.98
2023-04-21T13:39:14.168Z,14.55
2023-04-21T13:41:41.952Z,13.93
2023-04-21T13:44:09.644Z,14.55
2023-04-21T13:46:39.050Z,16.38
2023-04-21T13:49:07.513Z,13.68
2023-04-21T13:51:35.582Z,13.73
2023-04-21T13:54:03.308Z,15.35
2023-04-21T13:56:31.198Z,17.50
2023-04-21T13:58:59.451Z,13.88
2023-04-21T14:01:27.274Z,12.30
2023-04-21T14:03:57.121Z,11.63
2023-04-21T14:06:25.323Z,12.00
2023-04-21T14:08:53.255Z,11.53
2023-04-21T14:11:21.391Z,11.13
2023-04-21T14:14:07.518Z,11.23
2023-04-21T14:16:36.854Z,12.17
2023-04-21T14:19:06.130Z,12.80
2023-04-21T14:21:34.063Z,10.98
2023-04-21T14:24:01.771Z,12.65
2023-04-21T14:26:29.607Z,11.57
2023-04-21T14:28:57.430Z,11.15
2023-04-21T14:31:25.326Z,10.97
2023-04-21T14:33:53.132Z,12.88
2023-04-21T14:36:22.171Z,12.25
2023-04-21T14:38:51.086Z,10.43
2023-04-21T14:41:18.773Z,9.48
2023-04-21T14:43:47.697Z,11.30
2023-04-21T14:46:17.626Z,10.48
2023-04-21T14:48:45.418Z,10.07
2023-04-21T14:51:13.165Z,12.20
2023-04-21T14:53:42.272Z,9.45
2023-04-21T14:56:10.346Z,9.65
2023-04-21T14:58:37.988Z,11.23
2023-04-21T15:01:06.079Z,10.98
2023-04-21T15:03:33.860Z,9.65
2023-04-21T15:06:01.737Z,9.88
2023-04-21T15:08:29.461Z,8.63
2023-04-21T15:10:58.532Z,9.15
2023-04-21T15:13:26.340Z,8.57
2023-04-21T15:15:53.925Z,12.70
2023-04-21T15:18:21.940Z,10.07
2023-04-21T15:20:49.696Z,10.32
2023-04-21T15:23:17.544Z,11.07
2023-04-21T15:25:45.265Z,9.68
2023-04-21T15:28:14.439Z,8.75
2023-04-21T15:30:42.197Z,10.02
2023-04-21T15:33:11.524Z,11.52
2023-04-21T15:35:39.375Z,9.80
2023-04-21T15:38:07.266Z,9.13
2023-04-21T15:40:37.626Z,9.10
2023-04-21T15:43:11.455Z,9.90
2023-04-21T15:45:41.107Z,9.50
2023-04-21T15:48:09.151Z,11.48
2023-04-21T15:50:37.785Z,12.23
2023-04-21T15:53:06.052Z,13.32
2023-04-21T15:55:33.928Z,11.32
2023-04-21T15:58:01.816Z,10.82
2023-04-21T16:00:29.660Z,11.63
2023-04-21T16:02:59.689Z,12.35
2023-04-21T16:05:29.158Z,10.57
2023-04-21T16:07:57.173Z,12.20
2023-04-21T16:10:24.818Z,12.20
2023-04-21T16:12:52.588Z,11.82
2023-04-21T16:15:24.252Z,11.65
2023-04-21T16:17:52.884Z,11.27
2023-04-21T16:20:22.182Z,11.20
2023-04-21T16:22:50.313Z,12.40
2023-04-21T16:25:19.136Z,13.77
2023-04-21T16:27:46.915Z,13.02
2023-04-21T16:30:14.734Z,13.57
2023-04-21T16:32:42.460Z,13.50
2023-04-21T16:35:11.557Z,16.90
2023-04-21T16:37:42.707Z,14.45
2023-04-21T16:40:11.577Z,14.27
2023-04-21T16:42:39.673Z,14.73
2023-04-21T16:45:08.427Z,15.30
2023-04-21T16:47:41.732Z,14.38
2023-04-21T16:50:10.580Z,15.55
2023-04-21T16:52:38.204Z,15.23
2023-04-21T16:55:08.179Z,15.30
2023-04-21T17:00:00.125Z,14.40
2023-04-21T17:02:27.908Z,15.52
2023-04-21T17:04:55.681Z,14.98
2023-04-21T17:07:23.443Z,15.00
2023-04-21T17:09:51.782Z,14.75
2023-04-21T17:12:19.828Z,15.00
2023-04-21T17:14:48.485Z,15.70
2023-04-21T17:17:17.757Z,15.50
2023-04-21T17:19:45.703Z,20.25
2023-04-21T17:22:13.447Z,16.10
2023-04-21T17:24:52.505Z,16.35
2023-04-21T17:27:21.409Z,15.75
2023-04-21T17:29:49.383Z,16.83
2023-04-21T17:32:18.703Z,15.80
2023-04-21T17:34:46.667Z,15.73
2023-04-21T17:37:14.438Z,15.68
2023-04-21T17:39:42.179Z,14.43
2023-04-21T17:42:09.919Z,14.15
2023-04-21T17:44:37.927Z,13.75
2023-04-21T17:47:08.290Z,13.80
2023-04-21T17:49:37.716Z,14.40
2023-04-21T17:52:05.819Z,12.20
2023-04-21T17:54:33.439Z,12.93
2023-04-21T17:57:01.609Z,13.05
2023-04-21T17:59:29.402Z,13.77
2023-04-21T18:01:57.869Z,13.57
2023-04-21T18:04:27.328Z,14.48
2023-04-21T18:06:56.547Z,13.65
2023-04-21T18:09:25.340Z,14.68
2023-04-21T18:11:53.103Z,14.83
2023-04-21T18:14:21.350Z,15.68
2023-04-21T18:16:49.076Z,16.13
2023-04-21T18:19:18.318Z,20.38
2023-04-21T18:21:46.087Z,16.05
2023-04-21T18:24:15.259Z,11.73
2023-04-21T18:26:43.142Z,7.53
2023-04-21T18:29:10.801Z,4.97
2023-04-21T18:31:39.311Z,5.32
2023-04-21T18:34:08.698Z,4.75
2023-04-21T18:36:37.796Z,3.75
2023-04-21T18:39:06.386Z,3.88
2023-04-21T18:41:35.491Z,4.57
2023-04-21T18:44:03.485Z,3.35
2023-04-21T18:46:31.260Z,4.18
2023-04-21T18:48:59.070Z,5.88
2023-04-21T18:51:31.006Z,6.97
2023-04-21T18:53:59.006Z,4.43
2023-04-21T18:56:26.923Z,4.18
2023-04-21T18:58:56.711Z,4.50
2023-04-21T19:01:24.749Z,6.72
2023-04-21T19:03:53.124Z,4.60
2023-04-21T19:06:21.157Z,4.18
2023-04-21T19:08:51.169Z,4.70
2023-04-21T19:11:18.856Z,4.50
2023-04-21T19:13:48.147Z,4.70
2023-04-21T19:16:17.345Z,4.72
2023-04-21T19:18:45.345Z,4.32
2023-04-21T19:21:13.693Z,4.95
2023-04-21T19:23:41.849Z,5.82
2023-04-21T19:26:10.007Z,5.70
2023-04-21T19:28:37.720Z,5.15
2023-04-21T19:31:05.676Z,5.40
2023-04-21T19:33:34.792Z,5.20
2023-04-21T19:36:03.325Z,5.20
2023-04-21T19:38:31.075Z,5.40
2023-04-21T19:40:58.842Z,5.60
2023-04-21T19:43:26.759Z,5.25
2023-04-21T19:45:54.718Z,5.10
2023-04-21T19:48:22.722Z,5.45
2023-04-21T19:50:51.876Z,4.75
2023-04-21T19:53:19.620Z,5.30
2023-04-21T19:55:48.648Z,5.40
2023-04-21T19:58:28.156Z,5.10
2023-04-21T20:01:05.178Z,5.90
2023-04-21T20:03:33.174Z,7.03
2023-04-21T20:06:04.712Z,6.18
2023-04-21T20:08:32.477Z,5.90
2023-04-21T20:11:00.207Z,6.47
2023-04-21T20:13:27.965Z,7.40
2023-04-21T20:15:57.378Z,7.10
2023-04-21T20:18:25.198Z,8.82
2023-04-21T20:20:52.992Z,7.25
2023-04-21T20:23:22.214Z,8.18
2023-04-21T20:25:49.934Z,10.10
2023-04-21T20:28:17.629Z,7.53
2023-04-21T20:30:45.625Z,7.72
2023-04-21T20:33:13.392Z,8.55
2023-04-21T20:35:44.126Z,7.38
2023-04-21T20:38:11.965Z,9.02
2023-04-21T20:40:41.194Z,12.23
2023-04-21T20:43:10.267Z,12.27
2023-04-21T20:45:38.761Z,9.95
2023-04-21T20:48:06.734Z,9.45
2023-04-21T20:50:34.526Z,8.45
2023-04-21T20:53:02.341Z,8.45
2023-04-21T20:55:30.157Z,8.05
2023-04-21T20:57:59.600Z,8.40
2023-04-21T21:00:27.616Z,8.40
2023-04-21T21:02:55.524Z,9.52
2023-04-21T21:05:23.592Z,7.83
2023-04-21T21:07:51.343Z,9.07
2023-04-21T21:10:19.226Z,8.43
2023-04-21T21:12:46.963Z,8.27
2023-04-21T21:15:16.163Z,7.63
2023-04-21T21:17:43.984Z,7.05
2023-04-21T21:20:12.449Z,8.27
2023-04-21T21:22:40.227Z,9.05
2023-04-21T21:25:08.433Z,9.27
2023-04-21T21:27:36.200Z,8.13
2023-04-21T21:30:04.091Z,10.70
2023-04-21T21:32:33.343Z,11.07
2023-04-21T21:35:01.121Z,11.20
2023-04-21T21:37:28.898Z,9.70
2023-04-21T21:39:56.635Z,13.45
2023-04-21T21:42:24.365Z,12.05
2023-04-21T21:44:52.040Z,13.07
2023-04-21T21:47:19.696Z,13.55
2023-04-21T21:49:48.826Z,7.70
2023-04-21T21:52:16.549Z,6.63
2023-04-21T21:54:44.271Z,9.83
2023-04-21T21:57:11.947Z,6.38
2023-04-21T21:59:39.789Z,6.03
2023-04-21T22:02:07.693Z,6.07
2023-04-21T22:04:35.924Z,5.15
2023-04-21T22:07:05.176Z,4.55
2023-04-21T22:09:32.925Z,5.32
2023-04-21T22:12:01.108Z,4.53
2023-04-21T22:14:29.928Z,4.75
2023-04-21T22:16:58.980Z,6.15
2023-04-21T22:19:26.689Z,5.70
2023-04-21T22:21:54.385Z,5.07
2023-04-21T22:24:23.472Z,5.10
2023-04-21T22:26:51.090Z,5.60
2023-04-21T22:29:18.926Z,6.03
2023-04-21T22:31:46.736Z,6.30
2023-04-21T22:34:16.684Z,6.90
2023-04-21T22:36:44.468Z,6.72
2023-04-21T22:39:12.182Z,5.45
2023-04-21T22:41:41.244Z,5.95
2023-04-21T22:44:08.984Z,7.55
2023-04-21T22:46:36.716Z,5.68
2023-04-21T22:49:05.210Z,6.72
2023-04-21T22:51:33.237Z,6.10
2023-04-21T22:54:01.415Z,5.88
2023-04-21T22:56:29.961Z,6.30
2023-04-21T22:58:59.154Z,5.90
2023-04-21T23:01:26.916Z,5.90
2023-04-21T23:03:54.815Z,6.25
2023-04-21T23:06:22.708Z,6.53
2023-04-21T23:08:50.471Z,6.15
2023-04-21T23:11:18.184Z,6.15
2023-04-21T23:13:45.931Z,6.18
2023-04-21T23:16:15.157Z,5.97
2023-04-21T23:18:42.988Z,6.53
2023-04-21T23:21:10.856Z,7.32
2023-04-21T23:23:38.585Z,6.28
2023-04-21T23:26:06.646Z,6.72
2023-04-21T23:28:34.334Z,6.55
2023-04-21T23:31:01.998Z,7.30
2023-04-21T23:33:31.594Z,8.02
2023-04-21T23:35:59.346Z,8.30
2023-04-21T23:38:27.108Z,7.80
2023-04-21T23:40:54.754Z,7.30
2023-04-21T23:43:22.580Z,7.20
2023-04-21T23:45:50.533Z,8.00
2023-04-21T23:48:18.289Z,8.15
2023-04-21T23:50:47.485Z,8.18
2023-04-21T23:53:15.384Z,7.18
2023-04-21T23:55:43.260Z,8.00
2023-04-21T23:58:11.063Z,8.75
